Terminal Aerodrome Forecast
Issued by NWS

Home | Current Version | Previous Version | Graphics & Text | Print | Product List | Glossary On
Versions: 1 2 3 4 5 6 7 8 9 10 11 12 13 14 15
175
FTUS42 KMHX 080537
TAFPGV
TAF
KPGV 080537Z 0806/0906 00000KT P6SM SCT030 BKN050
      TEMPO 0806/0809 5SM BR BKN025
     FM081000 VRB02KT P6SM BKN020
     FM081400 29007KT P6SM OVC020
     FM081900 31009G15KT P6SM BKN040
     FM082300 31007KT P6SM SCT200
      AMD LTD TO CLD VIS AND WIND=

USA.gov is the U.S. government's official web portal to all federal, state and local government web resources and services.